Terminal Aerodrome Forecast
Issued by NWS

Home | Current Version | Previous Version | Text Only | Print | Product List | Glossary On
Versions: 1 2 3 4 5 6 7 8 9 10 11 12 13 14
629
FTUS46 KPDT 240520
TAFBDN
TAF
KBDN 240520Z 2406/2506 34006KT P6SM FEW070 BKN250
     FM240900 32006KT P6SM FEW080 SCT250
     FM241200 27004KT P6SM FEW250
     FM242100 35008G15KT P6SM VCTS BKN070CB OVC250=

USA.gov is the U.S. government's official web portal to all federal, state and local government web resources and services.